Aviation Digital Data Service (ADDS)

Output produced by METARs form (1500 UTC 04 August 2021)
found at http://www.aviationweather.gov/metar/data/
 
LECO 041430Z 03005KT 330V070 9999 FEW008 BKN019 20/18 Q1019 TEMPO BKN010
TAF LECO 041400Z 0415/0515 30008KT 9999 SCT012 SCT020 TX20/0415Z TN15/0503Z 
     PROB30 
     TEMPO 0415/0418 36012KT BKN010 
     TEMPO 0503/0509 3000 DZ BR BKN005 
     PROB40 
     TEMPO 0504/0507 1500 BCFG BKN003 
     PROB30 
     TEMPO 0505/0506 0500 FG BKN001 
     BECMG 0508/0510 24010KT 
     TEMPO 0509/0512 RA BKN010 
     PROB40 
     TEMPO 0511/0515 30012G22KT 4000 RA BKN010
       
LEAB 041430Z 30010G20KT 250V330 CAVOK 32/07 Q1016 NOSIG
TAF LEAB 041100Z 0412/0512 30010KT CAVOK TX33/0415Z TN17/0505Z 
     PROB40 
     TEMPO 0412/0418 30014G25KT 
     BECMG 0418/0420 04010KT 
     TEMPO 0422/0505 VRB05KT 
     BECMG 0504/0507 17010KT
       
LERI 041430Z 17013KT 130V200 CAVOK 37/15 Q1011 NOSIG
TAF LERI 041100Z 0412/0512 VRB02KT CAVOK TX38/0415Z TN20/0505Z 
     BECMG 0413/0415 22010KT 
     BECMG 0422/0424 05008KT
       
LEAL 041430Z 18014KT 140V210 CAVOK 31/19 Q1011 NOSIG
TAF LEAL 041100Z 0412/0512 18015KT CAVOK TX34/0412Z TN22/0506Z 
     TEMPO 0414/0417 19020G30KT 
     BECMG 0418/0420 05009KT 
     TEMPO 0500/0506 BKN010 
     TEMPO 0503/0508 VRB04KT 
     BECMG 0508/0510 11010KT
       
LEAM 041430Z 20011KT 160V220 CAVOK 25/21 Q1014
TAF LEAM 041100Z 0412/0512 22010KT 9999 FEW010 TX28/0413Z TN21/0504Z 
     PROB40 
     TEMPO 0412/0418 22015G25KT 
     BECMG 0421/0423 VRB02KT 
     BECMG 0508/0510 21010KT
       
LEGA 041300Z 34006G16KT 260V070 CAVOK 32/08 Q1018
TAF LEGA 041100Z 0412/0512 29010KT CAVOK TX36/0415Z TN20/0505Z 
     BECMG 0420/0422 VRB02KT 
     BECMG 0509/0511 29010KT
       
LEAS 041430Z 30006KT 270V010 9999 FEW005 BKN007 BKN010 19/18 Q1019 TEMPO 3000 BR
TAF LEAS 041400Z 0415/0515 28007KT 9000 SCT008 BKN018 TX25/0512Z TN17/0421Z 
     TEMPO 0415/0424 BKN010 
     PROB40 
     TEMPO 0415/0417 3000 -DZ BR BKN005 
     BECMG 0510/0512 34012KT 
     TEMPO 0512/0515 32018G30KT SCT030TCU
       
LEMD 041430Z 30007KT 260V320 9999 FEW070 SCT080 32/09 Q1016 NOSIG
TAF AMD LEMD 041432Z 0414/0518 VRB05KT CAVOK TX32/0415Z TN17/0505Z 
     TEMPO 0416/0419 31012KT 
     PROB30 
     TEMPO 0416/0419 32015G27KT 
     BECMG 0511/0513 23010KT
       
LEBL 041430Z 19009KT 160V240 9999 FEW018 FEW030TCU SCT055 28/22 Q1012 BECMG 07015G30KT
TAF LEBL 041100Z 0412/0512 21010KT 9999 SCT014 TX29/0412Z TN21/0506Z 
     PROB40 
     TEMPO 0412/0417 3000 TSRA BKN020 FEW025CB 
     BECMG 0414/0416 07015KT 
     PROB30 
     TEMPO 0414/0417 07020G30KT 1000 TSGR BKN020 FEW025CB 
     TEMPO 0417/0420 07015G25KT 
     TEMPO 0420/0422 06005KT 
     BECMG 0422/0424 33007KT 
     BECMG 0509/0511 22015KT
       
LEBB 041430Z 32013KT 9999 FEW025 SCT050 23/18 Q1018 NOSIG
TAF LEBB 041100Z 0412/0512 30010KT 9999 SCT018 BKN030 TX26/0512Z TN13/0505Z 
     PROB40 
     TEMPO 0412/0419 30015G25KT 
     PROB30 
     TEMPO 0412/0414 4500 -RA BKN014 
     BECMG 0419/0421 VRB06KT 
     PROB30 
     TEMPO 0420/0424 DZ BKN014
       
LEBG 041430Z 25012KT 230V300 9999 SCT065 26/07 Q1018
TAF LEBG 041400Z 0415/0515 03012KT 9999 SCT035 TX27/0415Z TN11/0505Z 
     PROB40 
     TEMPO 0415/0421 03014G25KT 
     BECMG 0500/0502 VRB05KT 
     PROB30 0501/0504 4000 BR 
     BECMG 0507/0509 23011KT CAVOK 
     PROB40 
     TEMPO 0511/0515 24015G30KT
       
LEBA 041430Z 21007KT 170V260 CAVOK 37/11 Q1013
TAF LEBA 041400Z 0415/0515 25008KT CAVOK TX39/0416Z TN22/0506Z
       
LEVS 041430Z 31008KT 240V010 9999 FEW058 31/09 Q1017
TAF LEVS 041100Z 0412/0512 31012KT CAVOK TX32/0415Z TN18/0505Z 
     PROB30 
     TEMPO 0413/0420 31012G25KT 
     BECMG 0419/0421 VRB05KT
       
GCFV 041430Z 05016KT 9999 FEW030 26/19 Q1018
TAF GCFV 041400Z 0415/0515 05017KT 9999 FEW030 TX27/0514Z TN22/0506Z 
     BECMG 0418/0421 35012KT
       
LEGT 041430Z 33012KT 290V010 CAVOK 31/08 Q1017
TAF LEGT 041100Z 0412/0512 31012KT CAVOK TX32/0415Z TN18/0505Z 
     PROB30 
     TEMPO 0413/0420 31012G25KT 
     BECMG 0419/0421 VRB05KT
       
LEGE 041434Z 09007KT 350V160 9999 TS -RA BKN020 FEW025CB SCT040 22/19 Q1013
TAF LEGE 041100Z 0412/0512 VRB04KT 9999 SCT014 TX26/0412Z TN15/0506Z 
     TEMPO 0412/0414 18009KT 
     TEMPO 0412/0420 08010KT 3000 TSRA BKN020 FEW025CB 
     PROB40 
     TEMPO 0412/0417 03015G25KT 1000 TSGR BKN020 FEW025CB 
     PROB30 
     TEMPO 0417/0420 33007KT 
     PROB40 
     TEMPO 0422/0506 1000 BCFG BKN005 
     BECMG 0510/0512 16010KT
       
GCLP 041430Z 02025KT 9999 FEW030 26/16 Q1019 NOSIG
TAF GCLP 041400Z 0415/0515 03024KT 9999 FEW030 TX27/0514Z TN21/0506Z 
     PROB30 
     TEMPO 0415/0418 02022G32KT
       
LEGR 041430Z 28010KT 230V350 CAVOK 34/07 Q1016
TAF LEGR 041100Z 0412/0512 29010KT CAVOK TX36/0415Z TN18/0505Z 
     BECMG 0421/0423 VRB02KT 
     BECMG 0509/0511 29010KT
       
GCHI 041430Z 36011KT 330V030 9999 SCT035 26/16 Q1021
TAF GCHI 041400Z 0415/0515 01012KT 9999 FEW030 TX25/0514Z TN22/0506Z
       
LEIB 041430Z 22012KT 190V250 9999 FEW012 28/23 Q1013 NOSIG
TAF LEIB 041400Z 0415/0515 22015KT 9999 FEW020 TX29/0512Z TN21/0505Z 
     BECMG 0415/0417 22009KT 
     BECMG 0419/0421 VRB04KT 
     PROB30 
     TEMPO 0500/0506 BKN010 
     TEMPO 0501/0505 05010KT 
     TEMPO 0505/0509 12010KT 
     BECMG 0509/0511 20010KT
       
LEJR 041500Z 29009KT 230V320 CAVOK 35/12 Q1014
TAF LEJR 041400Z 0415/0515 26010KT CAVOK TX35/0514Z TN19/0505Z 
     BECMG 0422/0424 35008KT 
     BECMG 0512/0514 25010KT
       
GCGM 041430Z 20007KT 150V250 9999 FEW020 25/16 Q1021 RMK R09/19006KT 140V250 ARP/VRB06KT
TAF GCGM 041400Z 0415/0515 22008KT 9999 FEW020 TX25/0514Z TN21/0506Z
       
GCLA 041430Z 01014KT 9999 FEW040 26/16 Q1022
TAF GCLA 041400Z 0415/0515 02014KT 9999 SCT030 TX26/0514Z TN21/0506Z 
     BECMG 0419/0421 32008KT
       
GCRR 041430Z 36019KT 320V020 9999 FEW030 27/18 Q1018
TAF GCRR 041400Z 0415/0515 36021KT 9999 FEW030 TX28/0514Z TN21/0506Z 
     PROB40 
     TEMPO 0415/0515 36020G30KT
       
LELN 041430Z 24014KT 210V280 CAVOK 25/07 Q1018
TAF LELN 041400Z 0415/0515 28011KT 9999 FEW040 TX26/0415Z TN11/0505Z 
     BECMG 0421/0423 VRB05KT 
     BECMG 0507/0509 24010KT 
     PROB40 
     TEMPO 0511/0515 24015G30KT
       
LEMG 041430Z 17012KT 140V220 CAVOK 35/16 Q1012 NOSIG
TAF LEMG 041100Z 0412/0512 13004KT CAVOK TX36/0413Z TN19/0506Z 
     BECMG 0412/0414 20008KT 
     BECMG 0416/0418 13006KT 
     BECMG 0421/0423 29008KT 
     BECMG 0507/0509 13008KT
       
GEML 041430Z 09005KT 050V120 CAVOK 27/17 Q1015
TAF GEML 041100Z 0412/0512 28006KT 9999 FEW012 TX32/0414Z TN22/0505Z
       
LEMH 041430Z 22012KT 190V270 9999 FEW025 28/21 Q1013
TAF LEMH 041400Z 0415/0515 22010KT 9999 FEW020 TX30/0512Z TN20/0505Z 
     TEMPO 0416/0419 VRB04KT 
     TEMPO 0418/0421 05015G25KT 
     BECMG 0418/0420 05010KT 
     TEMPO 0506/0509 12010KT 
     BECMG 0509/0511 19010KT
       
LEMO 041500Z 31008G18KT 250V010 CAVOK 35/11 Q1014 NOSIG
TAF LEMO 041400Z 0415/0515 24010KT CAVOK TX39/0515Z TN21/0505Z 
     BECMG 0423/0501 VRB02KT 
     BECMG 0511/0513 24010KT
       
LEPP 041430Z 01011KT 330V040 9999 FEW040 25/14 Q1017
TAF LEPP 041400Z 0415/0515 35012KT 9999 FEW020 SCT035 TX30/0515Z TN12/0506Z 
     PROB30 
     TEMPO 0415/0420 01015G25KT 
     BECMG 0421/0423 VRB05KT 
     PROB30 
     TEMPO 0503/0506 4000 BR BKN010
       
LERS 041430Z 28011KT 230V330 9999 FEW050 33/13 Q1011
TAF LERS 041400Z 0415/0515 30012KT 9999 FEW025 TX32/0512Z TN18/0505Z 
     PROB30 
     TEMPO 0415/0418 VRB04KT 
     PROB40 
     TEMPO 0415/0418 30020G30KT 
     TEMPO 0418/0420 10015G25KT 
     BECMG 0421/0423 VRB04KT 
     BECMG 0509/0511 21012KT 
     BECMG 0512/0515 VRB04KT
       
LERT 041430Z 28016KT CAVOK 31/18 Q1015 NOSIG
TAF LERT 041400Z 0415/0515 27010KT CAVOK TX30/0514Z TN20/0505Z 
     BECMG 0422/0424 33008KT 
     BECMG 0510/0512 26010KT
       
LESA 041430Z 28008KT 250V310 CAVOK 28/09 Q1019
TAF LESA 041400Z 0415/0515 29010KT 9999 FEW035 TX29/0415Z TN11/0505Z 
     PROB40 
     TEMPO 0415/0419 30013KT 
     TEMPO 0422/0510 VRB05KT 
     PROB40 
     TEMPO 0514/0515 28013G25KT
       
LESO 041430Z 30007KT 240V350 9999 BKN025 BKN045 22/17 Q1017
TAF LESO 041100Z 0412/0512 27012KT 9999 FEW018 SCT025 TX26/0512Z TN15/0506Z 
     PROB30 
     TEMPO 0412/0418 30016G28KT BKN014 FEW030TCU 
     BECMG 0417/0420 21006KT 
     PROB30 
     TEMPO 0418/0424 DZ BKN014
       
LEXJ 041430Z 29007KT 260V330 9999 FEW019 BKN025 20/17 Q1018
TAF LEXJ 041400Z 0415/0515 29009KT 9999 SCT012 BKN020 TX26/0512Z TN14/0505Z 
     PROB30 
     TEMPO 0415/0424 BKN010 
     TEMPO 0512/0515 35012KT FEW030TCU
       
LEST 041430Z 23007KT 180V310 9999 FEW027 SCT035 22/16 Q1020 NOSIG
TAF LEST 041100Z 0412/0512 26008KT 9999 FEW015 SCT028 TX22/0415Z TN13/0504Z 
     PROB30 
     TEMPO 0412/0414 BKN012 
     TEMPO 0500/0512 3000 BR BKN005 BKN010 
     PROB40 
     TEMPO 0500/0504 1500 -DZ BCFG BKN003 
     TEMPO 0504/0512 1500 -RADZ BKN003 
     PROB40 
     TEMPO 0502/0508 0350 FG VV001
       
LEZL 041430Z 29007KT 240V010 CAVOK 35/12 Q1013 NOSIG
TAF LEZL 041400Z 0415/0515 33006KT CAVOK TX39/0515Z TN23/0505Z 
     BECMG 0512/0514 26010KT
       
LESB 041430Z AUTO 20014KT CAVOK 29/22 Q1014
LEBZ 041430Z 26010KT 210V280 CAVOK 33/13 Q1016
TAF LEBZ 041400Z 0415/0515 29008KT CAVOK TX36/0515Z TN16/0506Z
       
GCXO 041430Z 31014KT 280V350 9999 FEW016 22/15 Q1022 NOSIG
TAF GCXO 041400Z 0415/0515 32018KT 9999 FEW015 TX23/0514Z TN17/0506Z 
     PROB40 
     TEMPO 0418/0515 BKN010 
     PROB30 
     TEMPO 0503/0507 28008KT 
     PROB40 
     TEMPO 0419/0509 2000 DZ BCFG BKN003
       
GCTS 041430Z 08025KT 9999 FEW030 27/15 Q1019 WS R07 NOSIG
TAF GCTS 041400Z 0415/0515 08018KT 9999 FEW035 TX28/0514Z TN20/0506Z 
     PROB30 
     TEMPO 0415/0420 24008KT 
     BECMG 0417/0420 03007KT
       
LETO 041430Z 20007KT 140V260 9999 FEW065 31/11 Q1016 NOSIG
TAF LETO 041100Z 0412/0512 03005KT CAVOK TX32/0415Z TN17/0505Z 
     TEMPO 0416/0419 31012KT 
     PROB30 
     TEMPO 0416/0419 32010G20KT 
     BECMG 0511/0512 22010KT
       
LEVC 041430Z 09015KT 060V120 CAVOK 31/17 Q1012 NOSIG
TAF AMD LEVC 041200Z 0412/0512 11012KT 9999 FEW030 TX36/0412Z TN20/0506Z 
     TEMPO 0412/0414 08015G30KT 
     BECMG 0418/0420 VRB04KT 
     BECMG 0510/0512 12010KT
       
LEVD 041430Z 31008KT 260V010 CAVOK 27/07 Q1018
TAF LEVD 041400Z 0415/0515 31012KT 9999 FEW040 TX30/0415Z TN14/0505Z 
     TEMPO 0423/0502 04007KT 
     TEMPO 0502/0508 VRB05KT 
     BECMG 0509/0512 26011KT 
     PROB40 
     TEMPO 0512/0515 27015G27KT
       
LEVX 041430Z 27010KT 240V310 9999 BKN010 SCT020TCU 20/17 Q1020 TEMPO 4000 BR BKN005
TAF AMD LEVX 041445Z 0414/0512 27008KT 8000 SCT010 BKN020 TX22/0415Z TN12/0505Z 
     PROB40 
     TEMPO 0414/0418 3000 BR BKN010 
     PROB30 
     TEMPO 0414/0418 1500 BCFG BKN005 SCT020TCU 
     TEMPO 0500/0512 3000 BR BKN005 
     PROB40 
     TEMPO 0503/0507 1500 -DZ BR BKN003 
     TEMPO 0507/0512 1500 -RADZ BCFG BKN003 
     PROB30 
     TEMPO 0500/0512 0350 FG VV001
       
LEVT 041430Z 01007KT 340V110 9999 FEW028 SCT036 24/15 Q1017
TAF LEVT 041100Z 0412/0512 36012KT 9999 FEW015 BKN025 TX27/0512Z TN11/0506Z 
     PROB30 
     TEMPO 0412/0417 33015G25KT SCT030TCU 
     PROB30 
     TEMPO 0412/0413 4500 -RA BKN014 
     BECMG 0420/0422 VRB06KT 
     PROB30 
     TEMPO 0421/0424 BKN010 
     PROB40 
     TEMPO 0500/0507 3000 BR BCFG 
     PROB30 
     TEMPO 0504/0506 1500 BCFG
       
LEZG 041430Z 32012KT 280V360 9999 FEW050 30/13 Q1014
TAF LEZG 041100Z 0412/0512 31012KT 9999 FEW050 TX30/0415Z TN18/0506Z 
     TEMPO 0412/0416 31015KT 
     BECMG 0419/0421 31010KT 
     BECMG 0500/0502 27007KT 
     BECMG 0507/0509 VRB04KT